Time;durP1;ratioP1;P1;durP2;ratioP2;P2;SDS_P1;SDS_P2;PMS_P1;PMS_P2;Temp;Humidity;BMP_temperature;BMP_pressure;BME280_temperature;BME280_humidity;BME280_pressure;Samples;Min_cycle;Max_cycle;Signal;HPM_P1;HPM_P2
2022/09/09 00:00:55;;;;;;;1.60;0.57;;;7.10;99.90;;;;;;4940704;29;20502;-89
2022/09/09 00:03:36;;;;;;;2.95;0.80;;;7.00;99.90;;;;;;4919352;29;20415;-89
2022/09/09 00:06:30;;;;;;;1.33;0.70;;;7.00;99.90;;;;;;4917840;29;20403;-89
2022/09/09 00:09:21;;;;;;;1.80;0.60;;;6.90;99.90;;;;;;4922793;29;20918;-88
2022/09/09 00:11:58;;;;;;;1.55;0.70;;;6.90;99.90;;;;;;4952159;29;20406;-90
2022/09/09 00:14:41;;;;;;;3.97;0.80;;;6.90;99.90;;;;;;4942042;29;20805;-89
2022/09/09 00:17:17;;;;;;;2.70;0.90;;;6.90;99.90;;;;;;4935713;29;20390;-87
2022/09/09 00:20:21;;;;;;;0.95;0.60;;;6.90;99.90;;;;;;4937246;29;20404;-89
2022/09/09 00:23:11;;;;;;;1.85;0.70;;;6.80;99.90;;;;;;4917100;29;20407;-88
2022/09/09 00:25:48;;;;;;;3.88;0.63;;;6.70;99.90;;;;;;4932762;29;20571;-89
2022/09/09 00:28:22;;;;;;;3.08;0.75;;;6.80;99.90;;;;;;4945705;29;20430;-87
2022/09/09 00:30:50;;;;;;;1.60;0.70;;;6.80;99.90;;;;;;4945596;29;20409;-89
2022/09/09 00:33:22;;;;;;;1.90;0.77;;;6.80;99.90;;;;;;4936764;29;20405;-89
2022/09/09 00:35:57;;;;;;;2.05;0.70;;;6.70;99.90;;;;;;4919928;29;20469;-88
2022/09/09 00:38:41;;;;;;;2.22;0.70;;;6.70;99.90;;;;;;4951179;29;20429;-91
2022/09/09 00:41:13;;;;;;;1.80;0.60;;;6.70;99.90;;;;;;4919111;29;20909;-89
2022/09/09 00:43:42;;;;;;;1.38;0.65;;;6.70;99.90;;;;;;4935081;29;20402;-89
2022/09/09 00:46:48;;;;;;;1.83;0.75;;;6.70;99.90;;;;;;4935579;29;20402;-89
2022/09/09 00:49:39;;;;;;;1.77;0.70;;;6.60;99.90;;;;;;4932139;29;20434;-88
2022/09/09 00:52:18;;;;;;;1.13;0.60;;;6.60;99.90;;;;;;4933255;29;20406;-88
2022/09/09 00:55:07;;;;;;;1.33;0.70;;;6.60;99.90;;;;;;4935777;29;20473;-88
2022/09/09 00:57:36;;;;;;;1.50;0.70;;;6.60;99.90;;;;;;4935527;29;20420;-89
2022/09/09 01:00:22;;;;;;;3.00;0.70;;;6.60;99.90;;;;;;4935846;29;20512;-88
2022/09/09 01:02:57;;;;;;;2.73;0.67;;;6.60;99.90;;;;;;4936000;29;20396;-89
2022/09/09 01:05:47;;;;;;;1.83;0.70;;;6.70;99.90;;;;;;4934810;29;20568;-88
2022/09/09 01:08:50;;;;;;;1.30;0.60;;;6.60;99.90;;;;;;4951605;29;20402;-89
2022/09/09 01:11:29;;;;;;;2.10;0.68;;;6.60;99.90;;;;;;4951473;29;20493;-88
2022/09/09 01:14:17;;;;;;;1.40;0.60;;;6.60;99.90;;;;;;4936171;29;20397;-88
2022/09/09 01:16:46;;;;;;;3.23;0.60;;;6.60;99.90;;;;;;4951647;28;20410;-88
2022/09/09 01:19:31;;;;;;;1.83;0.87;;;6.50;99.90;;;;;;4951163;28;20505;-89
2022/09/09 01:22:36;;;;;;;1.77;0.70;;;6.50;99.90;;;;;;4936416;29;20409;-89
2022/09/09 01:25:18;;;;;;;3.13;0.80;;;6.30;99.90;;;;;;4919986;29;20421;-88
2022/09/09 01:28:08;;;;;;;2.05;0.60;;;6.40;99.90;;;;;;4946672;29;20413;-88
2022/09/09 01:30:40;;;;;;;1.48;0.60;;;6.40;99.90;;;;;;4934929;29;20417;-88
2022/09/09 01:33:16;;;;;;;1.90;0.68;;;6.40;99.90;;;;;;4925675;29;20414;-88
2022/09/09 01:36:20;;;;;;;2.38;0.90;;;6.40;99.90;;;;;;4935028;29;20469;-87
2022/09/09 01:38:51;;;;;;;1.53;0.87;;;6.40;99.90;;;;;;4924662;29;20406;-88
2022/09/09 01:41:20;;;;;;;1.35;0.70;;;6.40;99.90;;;;;;4934231;29;20405;-90
2022/09/09 01:44:04;;;;;;;2.95;1.08;;;6.40;99.90;;;;;;4935258;29;20956;-89
2022/09/09 01:46:34;;;;;;;1.03;0.70;;;6.40;99.90;;;;;;4950780;29;20437;-88
2022/09/09 01:49:06;;;;;;;2.33;0.70;;;6.30;99.90;;;;;;4931270;29;20470;-90
2022/09/09 01:51:37;;;;;;;1.58;0.80;;;6.30;99.90;;;;;;4917935;29;21018;-88
2022/09/09 01:54:08;;;;;;;2.20;0.70;;;6.30;99.90;;;;;;4934043;29;20469;-89
2022/09/09 01:56:56;;;;;;;2.97;0.68;;;6.40;99.90;;;;;;4934854;29;20970;-88
2022/09/09 01:59:52;;;;;;;1.45;0.70;;;6.30;99.90;;;;;;4934528;29;20433;-88
2022/09/09 02:02:48;;;;;;;1.98;0.90;;;6.30;99.90;;;;;;4917626;29;20408;-89
2022/09/09 02:05:40;;;;;;;2.47;0.70;;;6.30;99.90;;;;;;4927624;29;20415;-89
2022/09/09 02:08:42;;;;;;;1.48;0.70;;;6.20;99.90;;;;;;4946663;29;20613;-88
2022/09/09 02:11:15;;;;;;;2.75;0.93;;;6.20;99.90;;;;;;4930324;29;20902;-87
2022/09/09 02:13:51;;;;;;;2.67;0.70;;;6.20;99.90;;;;;;4946586;29;20415;-88
2022/09/09 02:16:27;;;;;;;1.58;0.80;;;6.20;99.90;;;;;;4930128;29;20694;-87
2022/09/09 02:19:02;;;;;;;1.63;0.75;;;6.30;99.90;;;;;;4914854;29;20400;-88
2022/09/09 02:21:48;;;;;;;3.07;0.70;;;6.20;99.90;;;;;;4933953;29;20510;-91
2022/09/09 02:24:17;;;;;;;2.42;0.82;;;6.20;99.90;;;;;;4932838;29;20422;-89
2022/09/09 02:26:55;;;;;;;2.03;0.80;;;6.20;99.90;;;;;;4918105;29;20930;-90
2022/09/09 02:29:28;;;;;;;2.60;0.80;;;6.20;99.90;;;;;;4931696;29;20504;-89
2022/09/09 02:32:02;;;;;;;1.45;0.70;;;6.20;99.90;;;;;;4935149;29;20513;-89
2022/09/09 02:34:39;;;;;;;1.30;0.70;;;6.20;99.90;;;;;;4934753;29;20416;-91
2022/09/09 02:37:09;;;;;;;1.97;0.80;;;6.10;99.90;;;;;;4934580;29;20425;-89
2022/09/09 02:39:39;;;;;;;3.00;0.80;;;6.20;99.90;;;;;;4934729;29;20421;-89
2022/09/09 02:42:11;;;;;;;1.08;0.70;;;6.20;99.90;;;;;;4935325;29;20416;-89
2022/09/09 02:44:39;;;;;;;2.03;0.80;;;6.10;99.90;;;;;;4933461;29;20450;-91
2022/09/09 02:47:13;;;;;;;1.33;0.80;;;6.10;99.90;;;;;;4934220;29;20465;-89
2022/09/09 02:49:45;;;;;;;2.03;0.70;;;6.10;99.90;;;;;;4931350;29;20423;-89
2022/09/09 02:52:34;;;;;;;1.80;0.70;;;6.10;99.90;;;;;;4931913;29;20938;-87
2022/09/09 02:55:12;;;;;;;2.03;0.80;;;6.10;99.90;;;;;;4905287;29;20430;-88
2022/09/09 02:57:41;;;;;;;1.58;0.82;;;6.10;99.90;;;;;;4915737;29;20407;-88
2022/09/09 03:00:10;;;;;;;1.10;0.70;;;6.10;99.90;;;;;;4916872;29;20482;-90
2022/09/09 03:02:39;;;;;;;1.27;0.70;;;6.00;99.90;;;;;;4951115;29;20456;-87
2022/09/09 03:05:08;;;;;;;1.80;0.80;;;6.10;99.90;;;;;;4952772;28;20402;-87
2022/09/09 03:07:36;;;;;;;2.40;0.95;;;5.90;99.90;;;;;;4938385;29;20398;-85
2022/09/09 03:10:05;;;;;;;2.33;0.80;;;6.10;99.90;;;;;;4938469;29;20769;-87
2022/09/09 03:12:33;;;;;;;2.67;1.20;;;6.10;99.90;;;;;;4954406;29;20416;-89
2022/09/09 03:15:01;;;;;;;1.50;0.90;;;6.10;99.90;;;;;;4938822;29;20409;-87
2022/09/09 03:17:29;;;;;;;2.20;0.80;;;6.00;99.90;;;;;;4939441;29;20944;-88
2022/09/09 03:19:58;;;;;;;3.25;0.80;;;6.00;99.90;;;;;;4939345;29;20473;-89
2022/09/09 03:22:26;;;;;;;2.17;0.90;;;6.00;99.90;;;;;;4939393;29;20477;-88
2022/09/09 03:24:57;;;;;;;3.80;0.98;;;6.10;99.90;;;;;;4940352;29;20405;-88
2022/09/09 03:27:25;;;;;;;2.27;0.70;;;6.00;99.90;;;;;;4934348;29;20487;-87
2022/09/09 03:29:53;;;;;;;1.33;0.77;;;6.10;99.90;;;;;;4940131;29;20413;-90
2022/09/09 03:32:25;;;;;;;2.60;0.70;;;6.10;99.90;;;;;;4940927;29;20413;-88
2022/09/09 03:34:56;;;;;;;1.80;0.80;;;6.00;99.90;;;;;;4940184;29;20757;-88
2022/09/09 03:37:25;;;;;;;2.80;0.90;;;6.00;99.90;;;;;;4935819;29;20420;-87
2022/09/09 03:39:54;;;;;;;1.98;1.00;;;6.00;99.90;;;;;;4936602;29;20415;-89
2022/09/09 03:42:23;;;;;;;1.40;0.70;;;6.00;99.90;;;;;;4935857;29;20422;-90
2022/09/09 03:44:54;;;;;;;3.03;0.80;;;5.90;99.90;;;;;;4935346;29;20402;-88
2022/09/09 03:47:24;;;;;;;1.52;0.82;;;5.90;99.90;;;;;;4935597;29;20454;-87
2022/09/09 03:49:57;;;;;;;1.75;0.82;;;5.90;99.90;;;;;;4922273;29;20419;-89
2022/09/09 03:52:29;;;;;;;1.35;0.73;;;5.80;99.90;;;;;;4936206;29;20476;-88
2022/09/09 03:54:57;;;;;;;1.77;0.90;;;5.80;99.90;;;;;;4934389;29;20509;-90
2022/09/09 03:57:26;;;;;;;2.40;0.80;;;5.80;99.90;;;;;;4937258;29;20504;-89
2022/09/09 03:59:54;;;;;;;2.60;1.00;;;5.90;99.90;;;;;;4937397;29;20941;-87
2022/09/09 04:02:25;;;;;;;2.78;0.80;;;5.70;99.90;;;;;;4935982;29;20422;-88
2022/09/09 04:04:56;;;;;;;1.25;0.80;;;5.80;99.90;;;;;;4954621;28;20673;-90
2022/09/09 04:07:24;;;;;;;2.17;0.83;;;5.70;99.90;;;;;;4938405;29;20417;-88
2022/09/09 04:09:54;;;;;;;2.47;1.00;;;5.80;99.90;;;;;;4938553;29;20422;-88
2022/09/09 04:12:22;;;;;;;1.77;0.80;;;5.80;99.90;;;;;;4922486;29;20485;-87
2022/09/09 04:14:51;;;;;;;1.42;0.77;;;5.90;99.90;;;;;;4935561;29;20833;-90
2022/09/09 04:17:21;;;;;;;1.60;0.87;;;5.90;99.90;;;;;;4935915;29;20441;-91
2022/09/09 04:19:51;;;;;;;3.47;0.90;;;5.80;99.90;;;;;;4939671;29;20465;-90
2022/09/09 04:22:19;;;;;;;2.60;0.90;;;5.80;99.90;;;;;;4937925;29;20406;-90
2022/09/09 04:24:47;;;;;;;2.58;1.20;;;5.90;99.90;;;;;;4936841;29;20418;-88
2022/09/09 04:27:18;;;;;;;2.47;0.90;;;5.80;99.90;;;;;;4937121;29;20422;-89
2022/09/09 04:29:49;;;;;;;1.23;1.00;;;5.80;99.90;;;;;;4936985;29;20421;-90
2022/09/09 04:32:18;;;;;;;1.80;0.90;;;5.80;99.90;;;;;;4936472;29;20450;-90
2022/09/09 04:34:47;;;;;;;3.05;1.00;;;5.80;99.90;;;;;;4937870;29;20416;-89
2022/09/09 04:37:16;;;;;;;1.30;0.80;;;5.80;99.90;;;;;;4937248;29;20425;-88
2022/09/09 04:39:47;;;;;;;1.58;0.93;;;5.90;99.90;;;;;;4937920;29;20410;-88
2022/09/09 04:42:17;;;;;;;2.40;1.10;;;5.80;99.90;;;;;;4936579;29;20425;-88
2022/09/09 04:44:46;;;;;;;3.23;1.07;;;5.80;99.90;;;;;;4936238;29;20454;-90
2022/09/09 04:47:15;;;;;;;1.80;1.00;;;5.80;99.90;;;;;;4929254;29;20925;-89
2022/09/09 04:49:43;;;;;;;2.70;0.97;;;5.80;99.90;;;;;;4917523;29;20443;-90
2022/09/09 04:52:11;;;;;;;2.20;1.10;;;5.90;99.90;;;;;;4924270;29;20960;-90
2022/09/09 04:54:40;;;;;;;1.73;0.90;;;5.80;99.90;;;;;;4942793;29;20418;-89
2022/09/09 04:57:10;;;;;;;2.28;1.08;;;5.80;99.90;;;;;;4907463;29;20440;-89
2022/09/09 04:59:45;;;;;;;4.55;1.30;;;5.90;99.90;;;;;;4915984;29;20415;-90
2022/09/09 05:02:14;;;;;;;2.70;1.57;;;5.70;99.90;;;;;;4917298;29;20416;-89
2022/09/09 05:04:44;;;;;;;3.03;1.30;;;5.80;99.90;;;;;;4929232;29;20913;-88
2022/09/09 05:07:14;;;;;;;2.70;1.30;;;5.90;99.90;;;;;;4940146;29;20505;-91
2022/09/09 05:09:42;;;;;;;3.53;1.80;;;5.80;99.90;;;;;;4937937;29;20933;-90
2022/09/09 05:12:11;;;;;;;3.42;1.30;;;5.80;99.90;;;;;;4928549;29;20423;-88
2022/09/09 05:14:46;;;;;;;1.47;1.10;;;5.80;99.90;;;;;;4931333;29;20438;-88
2022/09/09 05:17:15;;;;;;;2.10;1.40;;;5.80;99.90;;;;;;4925596;29;20415;-88
2022/09/09 05:19:42;;;;;;;2.80;1.48;;;5.80;99.90;;;;;;4931635;29;20406;-88
2022/09/09 05:22:11;;;;;;;3.00;1.70;;;5.90;99.90;;;;;;4928072;29;20935;-89
2022/09/09 05:24:44;;;;;;;3.45;1.60;;;5.90;99.90;;;;;;4944134;29;20412;-87
2022/09/09 05:27:12;;;;;;;3.20;1.65;;;5.90;99.90;;;;;;4931550;29;20415;-88
2022/09/09 05:29:43;;;;;;;3.72;1.90;;;5.90;99.90;;;;;;4950959;28;20409;-89
2022/09/09 05:32:11;;;;;;;4.50;1.60;;;5.90;99.90;;;;;;4950378;28;20959;-89
2022/09/09 05:34:43;;;;;;;3.40;1.50;;;6.00;99.90;;;;;;4949451;28;20418;-87
2022/09/09 05:37:12;;;;;;;2.65;1.77;;;5.90;99.90;;;;;;4951058;28;20417;-88
2022/09/09 05:39:40;;;;;;;4.57;1.67;;;6.00;99.90;;;;;;4935600;28;20472;-87
2022/09/09 05:42:07;;;;;;;3.58;1.50;;;6.00;99.90;;;;;;4950949;28;20409;-89
2022/09/09 05:44:37;;;;;;;3.10;1.55;;;6.00;99.90;;;;;;4950649;28;20409;-89
2022/09/09 05:47:05;;;;;;;2.90;1.55;;;6.10;99.90;;;;;;4950211;28;20413;-88
2022/09/09 05:49:34;;;;;;;2.85;1.42;;;6.10;99.90;;;;;;4950631;28;20465;-88
2022/09/09 05:52:03;;;;;;;2.80;1.60;;;6.10;99.90;;;;;;4950773;28;20394;-90
2022/09/09 05:54:32;;;;;;;3.20;1.60;;;6.20;99.90;;;;;;4950740;28;20412;-90
2022/09/09 05:57:01;;;;;;;2.38;1.30;;;6.20;99.90;;;;;;4949736;28;20992;-89
2022/09/09 05:59:29;;;;;;;2.70;1.38;;;6.20;99.90;;;;;;4950366;28;20405;-88
2022/09/09 06:01:57;;;;;;;3.22;1.70;;;6.30;99.90;;;;;;4952055;28;20406;-89
2022/09/09 06:04:32;;;;;;;3.85;1.60;;;6.30;99.90;;;;;;4951057;28;20414;-90
2022/09/09 06:07:01;;;;;;;2.40;1.45;;;6.40;99.90;;;;;;4950979;28;20425;-88
2022/09/09 06:09:30;;;;;;;3.50;1.90;;;6.40;99.90;;;;;;4950894;28;20422;-90
2022/09/09 06:11:58;;;;;;;3.90;1.70;;;6.50;99.90;;;;;;4951449;28;20551;-89
2022/09/09 06:14:27;;;;;;;3.73;1.80;;;6.40;99.90;;;;;;4952001;28;20409;-87
2022/09/09 06:16:58;;;;;;;2.72;1.52;;;6.50;99.90;;;;;;4951938;28;20421;-87
2022/09/09 06:19:30;;;;;;;3.10;1.45;;;6.60;99.90;;;;;;4951133;28;20434;-91
2022/09/09 06:21:59;;;;;;;2.28;1.50;;;6.60;99.90;;;;;;4951061;28;20465;-88
2022/09/09 06:24:30;;;;;;;3.42;1.63;;;6.60;99.90;;;;;;4950924;28;20425;-90
2022/09/09 06:27:00;;;;;;;2.80;1.30;;;6.70;99.90;;;;;;4950981;28;20414;-87
2022/09/09 06:29:32;;;;;;;2.58;1.45;;;6.70;99.90;;;;;;4950050;28;20478;-89
2022/09/09 06:32:01;;;;;;;2.05;1.42;;;6.70;99.90;;;;;;4949703;28;20410;-86
2022/09/09 06:34:30;;;;;;;3.17;1.48;;;6.80;99.90;;;;;;4949315;28;20413;-90
2022/09/09 06:36:59;;;;;;;3.30;1.60;;;6.80;99.90;;;;;;4951001;28;20421;-89
2022/09/09 06:39:34;;;;;;;2.47;1.30;;;6.90;99.90;;;;;;4952656;28;20536;-89
2022/09/09 06:42:03;;;;;;;2.80;1.60;;;6.90;99.90;;;;;;4953565;28;20497;-89
2022/09/09 06:44:52;;;;;;;2.92;1.38;;;7.00;99.90;;;;;;4954418;28;20414;-91
2022/09/09 06:47:33;;;;;;;2.72;1.48;;;7.10;99.90;;;;;;4953871;28;20428;-88
2022/09/09 06:50:01;;;;;;;2.70;1.58;;;7.10;99.90;;;;;;4954932;28;20457;-90
2022/09/09 06:52:32;;;;;;;2.10;1.40;;;7.10;99.90;;;;;;4939144;28;20420;-90
2022/09/09 06:55:00;;;;;;;2.90;1.38;;;7.20;99.90;;;;;;4954311;28;20468;-90
2022/09/09 06:57:29;;;;;;;3.30;1.60;;;7.20;99.90;;;;;;4937858;29;20421;-89
2022/09/09 07:00:09;;;;;;;3.17;1.58;;;7.30;99.90;;;;;;4952893;28;20417;-89
2022/09/09 07:02:38;;;;;;;3.30;1.67;;;7.40;99.90;;;;;;4954146;28;20410;-90
2022/09/09 07:05:08;;;;;;;4.47;2.13;;;7.40;99.90;;;;;;4953063;28;20421;-88
2022/09/09 07:07:37;;;;;;;6.65;2.20;;;7.50;99.90;;;;;;4953419;28;20406;-89
2022/09/09 07:10:07;;;;;;;3.90;2.00;;;7.60;99.90;;;;;;4953290;28;20430;-89
2022/09/09 07:12:37;;;;;;;2.95;1.50;;;7.60;99.90;;;;;;4953246;28;20417;-88
2022/09/09 07:15:09;;;;;;;1.80;1.20;;;7.70;99.90;;;;;;4952834;28;20822;-88
2022/09/09 07:17:40;;;;;;;3.05;1.52;;;7.70;99.90;;;;;;4953359;28;20418;-88
2022/09/09 07:20:08;;;;;;;2.28;1.20;;;7.70;99.90;;;;;;4952918;28;20398;-89
2022/09/09 07:22:36;;;;;;;1.90;1.10;;;7.80;99.90;;;;;;4952949;28;20406;-89
2022/09/09 07:25:04;;;;;;;2.08;1.23;;;7.80;99.90;;;;;;4952563;28;20437;-89
2022/09/09 07:27:32;;;;;;;2.53;1.40;;;7.90;99.90;;;;;;4952759;28;20521;-89
2022/09/09 07:29:59;;;;;;;4.10;1.40;;;8.00;99.90;;;;;;4952648;28;20406;-89
2022/09/09 07:32:27;;;;;;;2.50;1.30;;;8.00;99.90;;;;;;4952497;28;20928;-89
2022/09/09 07:34:55;;;;;;;2.67;1.20;;;8.10;99.90;;;;;;4952654;28;20413;-89
2022/09/09 07:37:24;;;;;;;2.33;1.00;;;8.10;99.90;;;;;;4952554;28;20947;-88
2022/09/09 07:39:52;;;;;;;1.70;1.20;;;8.20;99.90;;;;;;4952450;28;20751;-89
2022/09/09 07:42:20;;;;;;;3.35;1.60;;;8.20;99.90;;;;;;4952208;28;20394;-88
2022/09/09 07:44:49;;;;;;;1.40;1.10;;;8.30;99.90;;;;;;4952880;28;20403;-89
2022/09/09 07:47:17;;;;;;;3.30;1.40;;;8.40;99.90;;;;;;4952539;28;20925;-87
2022/09/09 07:49:49;;;;;;;2.83;1.23;;;8.40;99.90;;;;;;4952342;28;20940;-88
2022/09/09 07:52:23;;;;;;;2.63;1.02;;;8.50;99.90;;;;;;4951418;29;20398;-89
2022/09/09 07:54:56;;;;;;;2.40;1.10;;;8.60;99.90;;;;;;4953110;28;20500;-90
2022/09/09 07:57:24;;;;;;;2.77;1.20;;;8.60;99.90;;;;;;4952893;28;20418;-86
2022/09/09 07:59:54;;;;;;;2.55;1.23;;;8.70;99.90;;;;;;4952993;28;20405;-89
2022/09/09 08:02:23;;;;;;;3.85;1.20;;;8.80;99.90;;;;;;4951794;28;20474;-89
2022/09/09 08:04:51;;;;;;;3.10;1.10;;;8.70;99.90;;;;;;4951581;28;20410;-88
2022/09/09 08:07:21;;;;;;;2.70;1.30;;;8.80;99.90;;;;;;4952867;28;20422;-89
2022/09/09 08:09:55;;;;;;;2.42;1.08;;;8.90;99.90;;;;;;4952844;28;20418;-89
2022/09/09 08:12:29;;;;;;;2.88;1.08;;;9.10;99.90;;;;;;4952890;28;20442;-89
2022/09/09 08:14:57;;;;;;;2.90;1.00;;;9.30;99.90;;;;;;4951529;29;20427;-90
2022/09/09 08:17:29;;;;;;;2.72;0.80;;;9.20;99.90;;;;;;4944672;28;20423;-88
2022/09/09 08:20:04;;;;;;;2.58;0.80;;;9.20;99.90;;;;;;4932232;29;20407;-90
2022/09/09 08:22:34;;;;;;;2.00;0.90;;;9.40;99.90;;;;;;4947873;29;20510;-89
2022/09/09 08:25:02;;;;;;;1.85;0.75;;;9.40;99.90;;;;;;4916118;29;20447;-87
2022/09/09 08:27:32;;;;;;;1.13;0.70;;;9.50;99.90;;;;;;4916211;29;20895;-88
2022/09/09 08:30:00;;;;;;;3.23;0.80;;;9.60;99.90;;;;;;4935293;29;20809;-88
2022/09/09 08:32:29;;;;;;;1.23;0.88;;;9.60;99.90;;;;;;4935999;29;20444;-87
2022/09/09 08:34:58;;;;;;;34.90;2.80;;;9.50;99.90;;;;;;4935417;29;20410;-89
2022/09/09 08:37:28;;;;;;;2.78;0.70;;;9.70;99.90;;;;;;4934941;29;20418;-90
2022/09/09 08:39:56;;;;;;;2.53;0.95;;;9.80;99.90;;;;;;4934596;29;20394;-90
2022/09/09 08:42:37;;;;;;;1.02;0.90;;;9.80;99.90;;;;;;4934414;29;20505;-89
2022/09/09 08:45:34;;;;;;;1.50;0.60;;;9.80;99.90;;;;;;4934932;29;20406;-89
2022/09/09 08:48:24;;;;;;;2.27;0.70;;;9.90;99.90;;;;;;4934258;29;20414;-88
2022/09/09 08:50:53;;;;;;;2.00;0.63;;;10.00;99.90;;;;;;4934366;29;20398;-89
2022/09/09 08:53:35;;;;;;;1.40;0.75;;;10.10;99.90;;;;;;4934773;29;20409;-90
2022/09/09 08:56:11;;;;;;;2.03;0.60;;;10.20;99.90;;;;;;4934774;29;20429;-89
2022/09/09 08:58:50;;;;;;;1.25;0.60;;;10.40;99.90;;;;;;4934675;29;20440;-89
2022/09/09 09:01:40;;;;;;;1.58;0.60;;;10.30;99.90;;;;;;4934750;29;20399;-89
2022/09/09 09:04:32;;;;;;;1.30;0.60;;;10.40;99.90;;;;;;4934664;29;20402;-89
2022/09/09 09:07:29;;;;;;;1.50;0.60;;;10.50;99.90;;;;;;4934471;29;20402;-89
2022/09/09 09:10:15;;;;;;;3.17;0.70;;;10.40;99.90;;;;;;4934444;29;20505;-88
2022/09/09 09:13:03;;;;;;;2.93;0.60;;;10.50;99.90;;;;;;4934278;29;20893;-87
2022/09/09 09:15:38;;;;;;;1.88;0.70;;;10.50;99.90;;;;;;4934188;29;20481;-88
2022/09/09 09:18:12;;;;;;;1.40;0.60;;;10.50;99.90;;;;;;4934225;29;20466;-86
2022/09/09 09:21:21;;;;;;;2.00;0.65;;;10.50;99.90;;;;;;4933572;29;20806;-88
2022/09/09 09:23:59;;;;;;;1.05;0.50;;;10.70;99.90;;;;;;4934125;29;20401;-89
2022/09/09 09:26:34;;;;;;;2.27;0.50;;;10.80;99.90;;;;;;4935633;29;20418;-86
2022/09/09 09:29:16;;;;;;;1.38;0.60;;;10.80;99.90;;;;;;4940559;29;20414;-87
2022/09/09 09:31:56;;;;;;;1.38;0.60;;;10.80;99.90;;;;;;4948107;29;20408;-86
2022/09/09 09:34:25;;;;;;;3.40;0.60;;;10.80;99.90;;;;;;4951368;29;20404;-88
2022/09/09 09:37:04;;;;;;;2.15;0.70;;;10.80;99.90;;;;;;4934165;29;20408;-86
2022/09/09 09:39:39;;;;;;;2.03;0.60;;;11.00;99.90;;;;;;4933853;29;20461;-89
2022/09/09 09:42:28;;;;;;;2.70;0.70;;;11.10;99.90;;;;;;4920607;29;20424;-89
2022/09/09 09:45:08;;;;;;;2.15;0.80;;;11.30;99.90;;;;;;4933689;29;20954;-88
2022/09/09 09:47:36;;;;;;;1.00;0.50;;;11.30;99.90;;;;;;4933672;29;20498;-88
2022/09/09 09:50:20;;;;;;;1.35;0.57;;;11.30;99.90;;;;;;4949510;28;20967;-88
2022/09/09 09:53:06;;;;;;;2.13;0.77;;;11.20;99.90;;;;;;4933712;29;20604;-88
2022/09/09 09:55:52;;;;;;;1.90;0.60;;;11.20;99.90;;;;;;4933481;29;20417;-88
2022/09/09 09:58:21;;;;;;;1.58;0.68;;;11.40;99.90;;;;;;4933497;29;20418;-89
2022/09/09 10:00:53;;;;;;;2.28;0.63;;;11.60;99.90;;;;;;4941494;29;20409;-89
2022/09/09 10:03:33;;;;;;;1.33;0.60;;;11.60;99.90;;;;;;4953777;29;20384;-89
2022/09/09 10:06:01;;;;;;;1.20;0.60;;;11.70;99.90;;;;;;4939420;28;20398;-89
2022/09/09 10:08:29;;;;;;;1.67;0.50;;;11.70;99.90;;;;;;4933498;29;20401;-88
2022/09/09 10:10:56;;;;;;;1.25;0.55;;;11.80;99.90;;;;;;4933553;29;20402;-88
2022/09/09 10:13:42;;;;;;;1.40;0.50;;;11.90;99.90;;;;;;4934395;29;20416;-88
2022/09/09 10:16:24;;;;;;;1.75;0.60;;;12.00;99.90;;;;;;4938706;29;20438;-88
2022/09/09 10:19:04;;;;;;;2.07;0.60;;;11.90;99.90;;;;;;4937544;29;20420;-88
2022/09/09 10:21:51;;;;;;;0.77;0.50;;;12.00;99.90;;;;;;4937319;29;20409;-88
2022/09/09 10:24:39;;;;;;;0.98;0.60;;;12.00;99.90;;;;;;4937332;29;20472;-88
2022/09/09 10:27:35;;;;;;;2.50;0.60;;;12.00;99.90;;;;;;4937171;29;20441;-88
2022/09/09 10:30:14;;;;;;;1.10;0.60;;;12.00;99.90;;;;;;4937083;29;20404;-88
2022/09/09 10:33:07;;;;;;;1.00;0.50;;;12.10;99.90;;;;;;4921454;29;20933;-88
2022/09/09 10:36:05;;;;;;;2.33;0.70;;;12.10;99.90;;;;;;4936464;29;20417;-88
2022/09/09 10:39:02;;;;;;;1.25;0.63;;;12.20;99.90;;;;;;4931566;29;20470;-87
2022/09/09 10:41:43;;;;;;;0.97;0.50;;;12.30;99.90;;;;;;4918932;29;20887;-88
2022/09/09 10:44:25;;;;;;;1.83;0.70;;;12.00;99.90;;;;;;4930722;29;20505;-88
2022/09/09 10:47:02;;;;;;;2.70;0.70;;;12.30;99.90;;;;;;4931912;29;20997;-88
2022/09/09 10:50:12;;;;;;;0.52;0.50;;;12.40;99.90;;;;;;4936996;29;20493;-88
2022/09/09 10:53:01;;;;;;;4.35;0.65;;;12.50;99.90;;;;;;4929728;29;20407;-88
2022/09/09 10:56:04;;;;;;;4.13;0.65;;;12.60;99.90;;;;;;4917904;29;20404;-88
2022/09/09 10:59:02;;;;;;;2.80;0.50;;;12.60;99.90;;;;;;4932431;29;20407;-89
2022/09/09 11:01:53;;;;;;;4.05;0.60;;;12.70;99.90;;;;;;4917829;29;20414;-87
2022/09/09 11:04:32;;;;;;;1.83;0.53;;;12.80;99.90;;;;;;4917827;29;20400;-88
2022/09/09 11:07:05;;;;;;;3.47;0.60;;;12.90;99.90;;;;;;4917756;29;20906;-87
2022/09/09 11:09:48;;;;;;;4.15;0.63;;;12.90;99.90;;;;;;4919233;29;20755;-86
2022/09/09 11:12:20;;;;;;;3.50;0.50;;;13.00;99.90;;;;;;4917744;29;20400;-89
2022/09/09 11:15:04;;;;;;;1.30;0.50;;;13.10;99.90;;;;;;4933322;29;20402;-89
2022/09/09 11:17:46;;;;;;;1.75;0.43;;;13.10;99.90;;;;;;4917537;29;20506;-89
2022/09/09 11:20:15;;;;;;;1.95;0.40;;;13.10;99.90;;;;;;4917550;29;20435;-89
2022/09/09 11:22:56;;;;;;;2.33;0.50;;;13.20;99.90;;;;;;4917505;29;20407;-88
2022/09/09 11:25:32;;;;;;;2.20;0.60;;;13.30;99.90;;;;;;4916832;29;20392;-89
2022/09/09 11:28:32;;;;;;;3.45;0.60;;;13.30;99.90;;;;;;4928056;29;20519;-89
2022/09/09 11:31:22;;;;;;;1.35;0.50;;;13.50;99.90;;;;;;4958703;28;20509;-88
2022/09/09 11:33:50;;;;;;;2.75;0.50;;;13.60;99.90;;;;;;4953194;28;20791;-87
2022/09/09 11:36:26;;;;;;;2.07;0.60;;;13.50;99.90;;;;;;4970652;28;20408;-89
2022/09/09 11:39:29;;;;;;;0.80;0.52;;;13.60;99.90;;;;;;4955325;28;20412;-89
2022/09/09 11:42:26;;;;;;;3.15;0.55;;;13.60;99.90;;;;;;4970818;28;21544;-89
2022/09/09 11:44:56;;;;;;;2.50;0.60;;;13.70;99.90;;;;;;4969866;28;20899;-89
2022/09/09 11:47:30;;;;;;;1.63;0.45;;;13.80;99.90;;;;;;4935543;29;20408;-89
2022/09/09 11:50:16;;;;;;;1.75;0.50;;;13.70;99.90;;;;;;4948416;29;20427;-87
2022/09/09 11:52:47;;;;;;;2.25;0.60;;;13.80;99.90;;;;;;4916793;29;20391;-89
2022/09/09 11:55:26;;;;;;;1.70;0.50;;;13.80;99.90;;;;;;4916910;29;20766;-88
2022/09/09 11:58:05;;;;;;;2.15;0.50;;;13.90;99.90;;;;;;4935224;29;20401;-88
2022/09/09 12:00:44;;;;;;;1.50;0.50;;;14.00;99.90;;;;;;4935485;29;20493;-88
2022/09/09 12:03:42;;;;;;;3.10;0.60;;;14.00;99.90;;;;;;4936857;29;20742;-90
2022/09/09 12:06:20;;;;;;;1.60;0.50;;;14.10;99.90;;;;;;4935685;29;20908;-88
2022/09/09 12:08:54;;;;;;;0.63;0.45;;;14.30;99.90;;;;;;4917752;29;20895;-89
2022/09/09 12:11:27;;;;;;;1.50;0.50;;;14.40;99.90;;;;;;4917005;29;20763;-89
2022/09/09 12:13:58;;;;;;;2.63;0.50;;;14.20;99.90;;;;;;4916530;29;20408;-88
2022/09/09 12:16:34;;;;;;;1.10;0.57;;;14.30;99.90;;;;;;4921921;29;20882;-89
2022/09/09 12:19:18;;;;;;;2.55;0.40;;;14.40;99.90;;;;;;4935583;29;20808;-89
2022/09/09 12:22:07;;;;;;;1.42;0.40;;;14.60;99.90;;;;;;4951319;29;20402;-89
2022/09/09 12:24:44;;;;;;;2.05;0.50;;;14.50;99.90;;;;;;4951040;29;20493;-88
2022/09/09 12:27:32;;;;;;;2.25;0.50;;;14.50;99.90;;;;;;4951059;28;20912;-89
2022/09/09 12:30:08;;;;;;;2.65;0.50;;;14.60;99.90;;;;;;4950886;29;20402;-88
2022/09/09 12:32:37;;;;;;;1.80;0.40;;;14.70;99.90;;;;;;4939707;29;21030;-89
2022/09/09 12:35:19;;;;;;;2.13;0.40;;;14.70;99.90;;;;;;4915937;29;20411;-87
2022/09/09 12:37:56;;;;;;;1.55;0.40;;;14.80;99.90;;;;;;4926282;29;20392;-90
2022/09/09 12:40:27;;;;;;;0.80;0.47;;;14.90;99.90;;;;;;4933360;29;20405;-88
2022/09/09 12:42:55;;;;;;;2.78;0.47;;;14.90;99.90;;;;;;4934881;29;20484;-89
2022/09/09 12:45:26;;;;;;;3.08;0.50;;;15.00;99.90;;;;;;4934606;29;20927;-88
2022/09/09 12:48:01;;;;;;;1.88;0.40;;;15.00;99.90;;;;;;4926144;29;20410;-89
2022/09/09 12:50:32;;;;;;;2.03;0.50;;;15.10;99.90;;;;;;4932939;29;20416;-89
2022/09/09 12:53:10;;;;;;;1.35;0.40;;;15.00;99.90;;;;;;4950748;29;20825;-88
2022/09/09 12:55:39;;;;;;;3.15;0.60;;;15.20;99.90;;;;;;4947859;29;20789;-89
2022/09/09 12:58:07;;;;;;;1.90;0.50;;;15.20;99.90;;;;;;4934554;29;20413;-88
2022/09/09 13:00:35;;;;;;;2.17;0.60;;;15.30;99.90;;;;;;4934329;29;20397;-88
2022/09/09 13:03:16;;;;;;;1.13;0.40;;;15.30;99.90;;;;;;4934445;29;20494;-88
2022/09/09 13:05:46;;;;;;;2.83;0.55;;;15.30;99.90;;;;;;4931082;29;20902;-88
2022/09/09 13:08:24;;;;;;;2.63;0.57;;;15.40;99.90;;;;;;4931316;29;20921;-87
2022/09/09 13:11:03;;;;;;;2.35;0.60;;;15.50;99.90;;;;;;4925887;29;20413;-89
2022/09/09 13:13:42;;;;;;;0.80;0.50;;;15.40;99.90;;;;;;4950193;28;20408;-88
2022/09/09 13:16:23;;;;;;;2.20;0.55;;;15.50;99.90;;;;;;4935257;29;20402;-87
2022/09/09 13:18:52;;;;;;;8.95;0.98;;;15.60;99.90;;;;;;4934235;29;20489;-89
2022/09/09 13:21:30;;;;;;;3.15;0.50;;;15.60;99.90;;;;;;4933385;29;20471;-89
2022/09/09 13:24:03;;;;;;;1.60;0.40;;;15.60;99.90;;;;;;4935392;29;21038;-89
2022/09/09 13:26:31;;;;;;;4.68;0.50;;;15.70;99.90;;;;;;4934156;29;20410;-89
2022/09/09 13:29:19;;;;;;;3.27;0.40;;;15.80;99.90;;;;;;4926297;29;20512;-87
2022/09/09 13:31:53;;;;;;;1.23;0.40;;;15.70;99.90;;;;;;4936128;29;20417;-89
2022/09/09 13:34:30;;;;;;;1.25;0.50;;;15.60;99.90;;;;;;4936812;29;20419;-89
2022/09/09 13:37:05;;;;;;;3.20;0.50;;;15.60;99.90;;;;;;4931452;29;20405;-89